createdAt,value
2023-02-04T00:02:06.941Z,4.90
2023-02-04T00:04:33.629Z,4.90
2023-02-04T00:07:00.379Z,4.90
2023-02-04T00:09:27.085Z,4.80
2023-02-04T00:11:53.787Z,4.80
2023-02-04T00:14:20.568Z,4.80
2023-02-04T00:16:47.318Z,4.90
2023-02-04T00:19:14.042Z,4.80
2023-02-04T00:21:40.802Z,4.80
2023-02-04T00:24:07.558Z,4.90
2023-02-04T00:26:34.334Z,4.80
2023-02-04T00:29:01.067Z,4.80
2023-02-04T00:31:27.955Z,4.80
2023-02-04T00:33:54.739Z,4.70
2023-02-04T00:36:21.474Z,4.80
2023-02-04T00:38:48.205Z,4.90
2023-02-04T00:41:14.913Z,4.80
2023-02-04T00:43:41.677Z,4.80
2023-02-04T00:46:08.481Z,4.80
2023-02-04T00:48:35.650Z,4.80
2023-02-04T00:51:02.676Z,4.80
2023-02-04T00:53:29.426Z,4.80
2023-02-04T00:55:56.210Z,4.80
2023-02-04T00:58:22.977Z,4.80
2023-02-04T01:00:50.124Z,4.80
2023-02-04T01:03:16.878Z,4.80
2023-02-04T01:05:43.669Z,4.80
2023-02-04T01:08:10.873Z,4.70
2023-02-04T01:10:37.591Z,4.80
2023-02-04T01:13:05.516Z,4.80
2023-02-04T01:15:32.424Z,4.70
2023-02-04T01:17:59.172Z,4.60
2023-02-04T01:20:26.086Z,4.60
2023-02-04T01:22:52.802Z,4.60
2023-02-04T01:25:19.930Z,4.60
2023-02-04T01:27:46.803Z,4.60
2023-02-04T01:30:15.315Z,4.60
2023-02-04T01:32:42.290Z,4.50
2023-02-04T01:35:09.169Z,4.40
2023-02-04T01:37:35.946Z,4.40
2023-02-04T01:40:02.857Z,4.60
2023-02-04T01:42:29.949Z,4.60
2023-02-04T01:44:56.721Z,4.50
2023-02-04T01:47:24.769Z,4.50
2023-02-04T01:49:54.360Z,4.50
2023-02-04T01:52:22.520Z,4.40
2023-02-04T01:54:50.009Z,4.40
2023-02-04T01:57:17.643Z,4.40
2023-02-04T01:59:46.598Z,4.40
2023-02-04T02:02:40.614Z,4.50
2023-02-04T02:05:16.621Z,4.40
2023-02-04T02:07:44.165Z,4.40
2023-02-04T02:10:13.429Z,4.40
2023-02-04T02:12:41.072Z,4.40
2023-02-04T02:15:09.477Z,4.30
2023-02-04T02:17:36.861Z,4.40
2023-02-04T02:20:05.963Z,4.40
2023-02-04T02:22:40.027Z,4.40
2023-02-04T02:25:11.628Z,4.30
2023-02-04T02:27:38.806Z,4.30
2023-02-04T02:30:07.452Z,4.30
2023-02-04T02:32:34.366Z,4.30
2023-02-04T02:35:01.600Z,4.40
2023-02-04T02:37:29.492Z,4.30
2023-02-04T02:39:56.525Z,4.30
2023-02-04T02:42:24.113Z,4.30
2023-02-04T02:44:51.564Z,4.30
2023-02-04T02:47:21.887Z,4.20
2023-02-04T02:49:58.056Z,4.20
2023-02-04T02:52:26.285Z,4.20
2023-02-04T02:54:53.771Z,4.20
2023-02-04T02:57:22.462Z,4.10
2023-02-04T02:59:49.434Z,4.20
2023-02-04T03:02:22.361Z,4.20
2023-02-04T03:04:54.479Z,4.20
2023-02-04T03:07:22.621Z,4.20
2023-02-04T03:09:51.077Z,4.20
2023-02-04T03:12:18.035Z,4.20
2023-02-04T03:14:45.185Z,4.30
2023-02-04T03:17:13.002Z,4.30
2023-02-04T03:19:40.078Z,4.30
2023-02-04T03:22:07.822Z,4.20
2023-02-04T03:24:35.984Z,4.30
2023-02-04T03:27:03.078Z,4.20
2023-02-04T03:29:30.055Z,4.20
2023-02-04T03:31:59.829Z,4.20
2023-02-04T03:34:29.063Z,4.20
2023-02-04T03:36:55.862Z,4.10
2023-02-04T03:39:22.591Z,4.10
2023-02-04T03:41:49.344Z,4.10
2023-02-04T03:44:16.082Z,4.20
2023-02-04T03:46:42.811Z,4.20
2023-02-04T03:49:09.603Z,4.20
2023-02-04T03:51:36.335Z,4.10
2023-02-04T03:54:03.963Z,4.20
2023-02-04T03:56:30.753Z,4.20
2023-02-04T03:58:57.501Z,4.20
2023-02-04T04:01:24.287Z,4.10
2023-02-04T04:03:51.052Z,4.10
2023-02-04T04:06:17.747Z,4.10
2023-02-04T04:08:44.481Z,4.10
2023-02-04T04:11:11.286Z,4.10
2023-02-04T04:13:38.172Z,4.10
2023-02-04T04:16:05.303Z,4.10
2023-02-04T04:18:32.909Z,4.10
2023-02-04T04:20:59.746Z,4.10
2023-02-04T04:23:26.799Z,4.10
2023-02-04T04:25:53.576Z,4.20
2023-02-04T04:28:20.363Z,4.20
2023-02-04T04:30:47.126Z,4.10
2023-02-04T04:33:13.932Z,4.10
2023-02-04T04:35:40.627Z,4.20
2023-02-04T04:38:07.372Z,4.10
2023-02-04T04:40:34.241Z,4.10
2023-02-04T04:43:01.085Z,4.10
2023-02-04T04:45:27.792Z,4.10
2023-02-04T04:47:54.642Z,3.80
2023-02-04T04:50:21.644Z,3.30
2023-02-04T04:52:48.553Z,2.90
2023-02-04T04:55:15.586Z,2.80
2023-02-04T04:57:42.347Z,2.60
2023-02-04T05:00:13.123Z,2.50
2023-02-04T05:02:39.884Z,2.40
2023-02-04T05:05:06.773Z,2.40
2023-02-04T05:07:33.556Z,2.40
2023-02-04T05:10:00.328Z,2.30
2023-02-04T05:12:27.048Z,2.30
2023-02-04T05:14:53.786Z,2.30
2023-02-04T05:17:20.856Z,2.30
2023-02-04T05:19:47.611Z,2.30
2023-02-04T05:22:14.371Z,2.20
2023-02-04T05:24:41.203Z,2.20
2023-02-04T05:27:07.922Z,2.30
2023-02-04T05:29:34.638Z,2.10
2023-02-04T05:32:01.426Z,2.10
2023-02-04T05:34:28.262Z,2.00
2023-02-04T05:36:55.035Z,2.10
2023-02-04T05:39:21.777Z,2.10
2023-02-04T05:41:48.533Z,2.00
2023-02-04T05:44:15.295Z,2.10
2023-02-04T05:46:42.015Z,2.00
2023-02-04T05:49:08.766Z,2.00
2023-02-04T05:51:35.511Z,2.00
2023-02-04T05:54:02.374Z,2.00
2023-02-04T05:56:30.135Z,2.00
2023-02-04T05:58:56.833Z,2.00
2023-02-04T06:01:23.828Z,1.90
2023-02-04T06:03:50.606Z,1.90
2023-02-04T06:06:17.327Z,1.90
2023-02-04T06:08:44.031Z,1.90
2023-02-04T06:11:10.746Z,2.00
2023-02-04T06:13:37.454Z,2.00
2023-02-04T06:16:04.266Z,2.00
2023-02-04T06:18:30.972Z,2.00
2023-02-04T06:20:57.733Z,2.00
2023-02-04T06:23:24.473Z,2.10
2023-02-04T06:25:51.171Z,2.00
2023-02-04T06:28:17.925Z,1.90
2023-02-04T06:30:44.719Z,1.90
2023-02-04T06:33:11.668Z,2.00
2023-02-04T06:35:38.377Z,2.00
2023-02-04T06:38:05.083Z,2.00
2023-02-04T06:40:32.248Z,2.00
2023-02-04T06:42:59.203Z,2.00
2023-02-04T06:45:25.999Z,2.00
2023-02-04T06:47:52.711Z,1.90
2023-02-04T06:50:19.443Z,1.90
2023-02-04T06:52:46.753Z,1.90
2023-02-04T06:55:14.898Z,1.90
2023-02-04T06:57:41.939Z,1.80
2023-02-04T07:00:10.502Z,1.80
2023-02-04T07:02:39.715Z,1.80
2023-02-04T07:05:06.856Z,1.90
2023-02-04T07:07:33.780Z,1.90
2023-02-04T07:10:00.784Z,1.90
2023-02-04T07:12:27.610Z,1.90
2023-02-04T07:14:54.372Z,1.80
2023-02-04T07:17:21.081Z,1.80
2023-02-04T07:19:48.044Z,1.70
2023-02-04T07:22:14.876Z,1.70
2023-02-04T07:24:41.590Z,1.70
2023-02-04T07:27:08.349Z,1.70
2023-02-04T07:29:35.080Z,1.70
2023-02-04T07:32:02.020Z,1.80
2023-02-04T07:34:29.027Z,1.80
2023-02-04T07:36:55.941Z,1.80
2023-02-04T07:39:22.675Z,1.80
2023-02-04T07:41:49.382Z,1.80
2023-02-04T07:44:16.135Z,1.80
2023-02-04T07:46:43.021Z,1.70
2023-02-04T07:49:09.875Z,1.80
2023-02-04T07:51:36.709Z,1.70
2023-02-04T07:54:03.582Z,1.80
2023-02-04T07:56:30.304Z,1.70
2023-02-04T07:58:57.048Z,1.70
2023-02-04T08:01:23.997Z,1.70
2023-02-04T08:03:50.737Z,1.70
2023-02-04T08:06:17.468Z,1.80
2023-02-04T08:08:44.168Z,1.80
2023-02-04T08:11:10.960Z,1.80
2023-02-04T08:13:37.668Z,1.80
2023-02-04T08:16:04.566Z,1.90
2023-02-04T08:18:31.387Z,1.90
2023-02-04T08:20:59.344Z,1.90
2023-02-04T08:23:26.158Z,1.90
2023-02-04T08:25:53.006Z,1.90
2023-02-04T08:28:19.782Z,1.90
2023-02-04T08:30:46.684Z,1.90
2023-02-04T08:33:13.447Z,1.90
2023-02-04T08:35:40.162Z,2.10
2023-02-04T08:38:06.916Z,2.10
2023-02-04T08:40:33.883Z,2.20
2023-02-04T08:43:06.818Z,2.20
2023-02-04T08:45:33.551Z,2.30
2023-02-04T08:48:00.366Z,2.40
2023-02-04T08:50:28.830Z,2.40
2023-02-04T08:52:55.660Z,2.50
2023-02-04T08:55:22.396Z,2.40
2023-02-04T08:57:49.129Z,2.40
2023-02-04T09:00:16.203Z,2.50
2023-02-04T09:02:42.927Z,2.60
2023-02-04T09:05:09.638Z,2.60
2023-02-04T09:07:36.360Z,2.70
2023-02-04T09:10:03.202Z,2.70
2023-02-04T09:12:30.155Z,2.80
2023-02-04T09:14:57.291Z,2.90
2023-02-04T09:17:24.117Z,3.00
2023-02-04T09:19:50.844Z,3.00
2023-02-04T09:22:26.025Z,3.00
2023-02-04T09:24:52.796Z,3.00
2023-02-04T09:27:19.927Z,3.10
2023-02-04T09:29:46.827Z,3.10
2023-02-04T09:32:13.620Z,3.10
2023-02-04T09:34:40.358Z,3.20
2023-02-04T09:37:07.135Z,3.40
2023-02-04T09:39:33.863Z,3.30
2023-02-04T09:42:00.675Z,3.40
2023-02-04T09:44:28.805Z,3.40
2023-02-04T09:47:00.550Z,3.60
2023-02-04T09:49:28.047Z,3.70
2023-02-04T09:51:55.649Z,3.60
2023-02-04T09:54:23.995Z,3.60
2023-02-04T09:56:51.961Z,3.80
2023-02-04T09:59:23.692Z,3.70
2023-02-04T10:02:10.576Z,3.60
2023-02-04T10:04:37.410Z,3.40
2023-02-04T10:07:08.660Z,3.30
2023-02-04T10:09:35.390Z,3.40
2023-02-04T10:12:02.154Z,3.30
2023-02-04T10:14:29.036Z,3.30
2023-02-04T10:17:01.214Z,3.40
2023-02-04T10:19:30.664Z,3.40
2023-02-04T10:21:58.286Z,3.20
2023-02-04T10:24:26.821Z,3.30
2023-02-04T10:26:54.366Z,3.30
2023-02-04T10:29:25.685Z,3.30
2023-02-04T10:31:53.253Z,3.30
2023-02-04T10:34:23.898Z,3.20
2023-02-04T10:36:57.704Z,3.30
2023-02-04T10:39:29.298Z,3.40
2023-02-04T10:42:00.886Z,3.50
2023-02-04T10:44:30.648Z,3.60
2023-02-04T10:47:15.043Z,3.70
2023-02-04T10:49:52.008Z,3.60
2023-02-04T10:52:21.156Z,3.70
2023-02-04T10:54:48.376Z,3.70
2023-02-04T10:57:21.735Z,3.90
2023-02-04T10:59:51.851Z,3.90
2023-02-04T11:02:43.362Z,4.00
2023-02-04T11:05:14.183Z,3.90
2023-02-04T11:07:41.690Z,3.60
2023-02-04T11:10:23.030Z,3.60
2023-02-04T11:13:20.864Z,3.60
2023-02-04T11:15:54.626Z,3.80
2023-02-04T11:18:21.658Z,3.90
2023-02-04T11:20:50.535Z,3.90
2023-02-04T11:23:34.404Z,4.10
2023-02-04T11:26:08.953Z,4.50
2023-02-04T11:28:46.706Z,4.50
2023-02-04T11:31:22.497Z,4.60
2023-02-04T11:33:51.245Z,4.50
2023-02-04T11:36:17.978Z,4.30
2023-02-04T11:38:47.408Z,4.20
2023-02-04T11:41:20.040Z,4.30
2023-02-04T11:43:50.096Z,4.60
2023-02-04T11:46:17.808Z,5.00
2023-02-04T11:48:44.898Z,5.20
2023-02-04T11:51:17.131Z,5.20
2023-02-04T11:53:44.271Z,5.00
2023-02-04T11:56:21.474Z,5.20
2023-02-04T11:58:49.731Z,5.80
2023-02-04T12:01:24.954Z,6.10
2023-02-04T12:04:04.551Z,6.10
2023-02-04T12:06:34.194Z,5.90
2023-02-04T12:09:29.857Z,5.70
2023-02-04T12:12:01.167Z,5.10
2023-02-04T12:14:36.781Z,5.50
2023-02-04T12:17:18.311Z,5.80
2023-02-04T12:19:45.018Z,5.40
2023-02-04T12:22:11.820Z,5.20
2023-02-04T12:24:38.632Z,4.90
2023-02-04T12:27:05.448Z,5.00
2023-02-04T12:29:32.259Z,5.50
2023-02-04T12:31:59.013Z,5.80
2023-02-04T12:34:25.760Z,6.00
2023-02-04T12:36:52.487Z,5.50
2023-02-04T12:39:19.199Z,5.20
2023-02-04T12:41:45.961Z,4.80
2023-02-04T12:44:12.696Z,4.60
2023-02-04T12:46:39.985Z,4.60
2023-02-04T12:49:08.851Z,4.50
2023-02-04T12:51:39.908Z,4.80
2023-02-04T12:54:06.675Z,4.90
2023-02-04T12:56:33.720Z,4.90
2023-02-04T12:59:00.407Z,5.20
2023-02-04T13:01:27.101Z,5.50
2023-02-04T13:03:53.864Z,5.60
2023-02-04T13:06:20.583Z,6.40
2023-02-04T13:08:47.271Z,7.70
2023-02-04T13:11:14.234Z,8.90
2023-02-04T13:13:41.464Z,9.30
2023-02-04T13:16:08.205Z,9.50
2023-02-04T13:18:34.927Z,9.90
2023-02-04T13:21:01.796Z,9.60
2023-02-04T13:23:28.588Z,8.60
2023-02-04T13:25:55.319Z,7.30
2023-02-04T13:28:22.040Z,6.50
2023-02-04T13:30:48.794Z,5.90
2023-02-04T13:33:16.683Z,5.70
2023-02-04T13:35:45.854Z,5.10
2023-02-04T13:38:12.778Z,5.10
2023-02-04T13:40:39.490Z,4.70
2023-02-04T13:43:06.300Z,4.60
2023-02-04T13:45:33.376Z,4.60
2023-02-04T13:48:00.412Z,4.60
2023-02-04T13:50:27.302Z,4.90
2023-02-04T13:52:55.263Z,5.40
2023-02-04T13:55:22.131Z,5.30
2023-02-04T13:57:48.900Z,5.10
2023-02-04T14:00:16.092Z,5.00
2023-02-04T14:02:42.931Z,5.10
2023-02-04T14:05:09.760Z,4.80
2023-02-04T14:07:36.510Z,4.60
2023-02-04T14:10:03.565Z,4.50
2023-02-04T14:12:31.242Z,4.30
2023-02-04T14:14:58.041Z,4.20
2023-02-04T14:17:24.958Z,4.20
2023-02-04T14:19:51.895Z,4.20
2023-02-04T14:22:18.630Z,4.50
2023-02-04T14:24:47.411Z,4.40
2023-02-04T14:27:14.444Z,4.40
2023-02-04T14:29:41.260Z,5.50
2023-02-04T14:32:08.394Z,5.30
2023-02-04T14:34:35.208Z,4.70
2023-02-04T14:37:01.953Z,4.40
2023-02-04T14:39:28.828Z,4.20
2023-02-04T14:41:55.543Z,4.00
2023-02-04T14:44:22.275Z,3.90
2023-02-04T14:46:49.468Z,3.70
2023-02-04T14:49:16.794Z,3.70
2023-02-04T14:51:43.725Z,3.70
2023-02-04T14:54:11.004Z,3.60
2023-02-04T14:56:37.908Z,3.50
2023-02-04T14:59:05.111Z,3.40
2023-02-04T15:01:31.984Z,3.80
2023-02-04T15:03:59.016Z,4.80
2023-02-04T15:06:25.837Z,5.00
2023-02-04T15:08:52.713Z,5.50
2023-02-04T15:11:19.448Z,5.40
2023-02-04T15:13:46.930Z,4.60
2023-02-04T15:16:14.767Z,4.10
2023-02-04T15:18:42.299Z,3.80
2023-02-04T15:21:09.256Z,3.60
2023-02-04T15:23:36.073Z,3.40
2023-02-04T15:26:03.342Z,3.30
2023-02-04T15:28:30.956Z,3.30
2023-02-04T15:30:58.154Z,3.30
2023-02-04T15:33:24.990Z,3.30
2023-02-04T15:35:51.731Z,3.20
2023-02-04T15:38:18.454Z,3.20
2023-02-04T15:40:45.482Z,3.10
2023-02-04T15:43:12.322Z,3.00
2023-02-04T15:45:41.394Z,3.00
2023-02-04T15:48:08.628Z,2.90
2023-02-04T15:50:35.697Z,2.90
2023-02-04T15:53:02.960Z,2.80
2023-02-04T15:55:29.924Z,2.80
2023-02-04T15:57:57.744Z,2.70
2023-02-04T16:00:25.179Z,2.70
2023-02-04T16:02:52.034Z,2.70
2023-02-04T16:05:18.894Z,2.70
2023-02-04T16:07:45.812Z,2.70
2023-02-04T16:10:12.671Z,2.60
2023-02-04T16:12:39.375Z,2.60
2023-02-04T16:15:06.600Z,2.50
2023-02-04T16:17:33.323Z,2.50
2023-02-04T16:20:00.202Z,2.40
2023-02-04T16:22:27.460Z,2.40
2023-02-04T16:24:55.024Z,2.30
2023-02-04T16:27:21.823Z,2.20
2023-02-04T16:29:48.560Z,2.10
2023-02-04T16:32:15.829Z,2.00
2023-02-04T16:34:42.536Z,1.90
2023-02-04T16:37:09.254Z,1.90
2023-02-04T16:39:39.590Z,1.90
2023-02-04T16:42:08.613Z,1.90
2023-02-04T16:44:37.283Z,1.90
2023-02-04T16:47:09.121Z,1.90
2023-02-04T16:49:36.805Z,1.90
2023-02-04T16:52:07.135Z,1.80
2023-02-04T16:54:34.892Z,1.80
2023-02-04T16:57:02.712Z,1.80
2023-02-04T16:59:30.693Z,1.60
2023-02-04T17:01:58.079Z,1.40
2023-02-04T17:04:25.154Z,1.20
2023-02-04T17:06:52.222Z,0.80
2023-02-04T17:09:19.427Z,0.80
2023-02-04T17:11:46.370Z,0.80
2023-02-04T17:14:15.789Z,0.90
2023-02-04T17:16:43.789Z,0.90
2023-02-04T17:19:10.822Z,0.80
2023-02-04T17:21:40.359Z,0.80
2023-02-04T17:24:08.400Z,0.80
2023-02-04T17:26:39.568Z,0.80
2023-02-04T17:29:08.290Z,0.60
2023-02-04T17:31:35.828Z,0.50
2023-02-04T17:34:03.213Z,0.50
2023-02-04T17:36:30.502Z,0.50
2023-02-04T17:38:57.521Z,0.30
2023-02-04T17:41:24.680Z,0.20
2023-02-04T17:43:51.667Z,0.20
2023-02-04T17:46:18.455Z,0.20
2023-02-04T17:48:45.283Z,0.10
2023-02-04T17:51:12.208Z,0.10
2023-02-04T17:53:40.470Z,0.10
2023-02-04T17:56:12.164Z,0.20
2023-02-04T17:58:39.370Z,0.30
2023-02-04T18:01:14.764Z,0.40
2023-02-04T18:03:46.384Z,0.40
2023-02-04T18:06:26.981Z,0.30
2023-02-04T18:08:56.426Z,0.30
2023-02-04T18:11:27.951Z,0.30
2023-02-04T18:14:05.294Z,0.30
2023-02-04T18:16:34.311Z,0.50
2023-02-04T18:19:22.498Z,0.50
2023-02-04T18:21:49.909Z,0.50
2023-02-04T18:24:19.693Z,0.50
2023-02-04T18:26:52.780Z,0.60
2023-02-04T18:29:37.880Z,0.60
2023-02-04T18:32:15.931Z,0.50
2023-02-04T18:34:46.252Z,0.50
2023-02-04T18:37:22.692Z,0.40
2023-02-04T18:39:49.455Z,0.30
2023-02-04T18:42:24.335Z,0.30
2023-02-04T18:44:52.461Z,0.30
2023-02-04T18:47:40.510Z,0.30
2023-02-04T18:50:30.746Z,0.10
2023-02-04T18:53:13.698Z,0.00
2023-02-04T18:55:49.368Z,0.00
2023-02-04T18:58:25.522Z,0.00
2023-02-04T19:00:59.659Z,-3276.70
2023-02-04T19:03:30.106Z,-3276.60
2023-02-04T19:06:02.591Z,-3276.60
2023-02-04T19:08:45.853Z,-3276.50
2023-02-04T19:11:35.648Z,-3276.40
2023-02-04T19:14:14.909Z,-3276.30
2023-02-04T19:16:42.186Z,-3276.20
2023-02-04T19:19:30.897Z,-3276.20
2023-02-04T19:21:57.666Z,-3276.10
2023-02-04T19:24:28.354Z,-3276.00
2023-02-04T19:26:59.108Z,-3276.00
2023-02-04T19:29:28.588Z,-3275.90
2023-02-04T19:31:59.900Z,-3275.90
2023-02-04T19:34:32.745Z,-3275.70
2023-02-04T19:36:59.882Z,-3275.70
2023-02-04T19:39:41.575Z,-3275.70
2023-02-04T19:42:36.767Z,-3275.70
2023-02-04T19:45:24.227Z,-3275.60
2023-02-04T19:47:53.861Z,-3275.50
2023-02-04T19:50:34.383Z,-3275.50
2023-02-04T19:53:09.476Z,-3275.40
2023-02-04T19:55:41.595Z,-3275.40
2023-02-04T19:58:41.068Z,-3275.30
2023-02-04T20:01:17.748Z,-3275.20
2023-02-04T20:03:45.887Z,-3275.10
2023-02-04T20:06:30.626Z,-3275.00
2023-02-04T20:09:16.165Z,-3275.00
2023-02-04T20:11:56.996Z,-3275.00
2023-02-04T20:14:36.935Z,-3274.90
2023-02-04T20:17:30.151Z,-3274.80
2023-02-04T20:20:00.534Z,-3274.80
2023-02-04T20:22:41.150Z,-3274.80
2023-02-04T20:25:20.589Z,-3274.80
2023-02-04T20:27:55.234Z,-3274.80
2023-02-04T20:30:27.593Z,-3274.70
2023-02-04T20:32:57.736Z,-3274.70
2023-02-04T20:35:33.350Z,-3274.70
2023-02-04T20:38:11.403Z,-3274.60
2023-02-04T20:40:38.276Z,-3274.60
2023-02-04T20:43:17.149Z,-3274.50
2023-02-04T20:45:49.531Z,-3274.50
2023-02-04T20:48:16.272Z,-3274.40
2023-02-04T20:50:48.272Z,-3274.40
2023-02-04T20:53:32.364Z,-3274.40
2023-02-04T20:56:14.002Z,-3274.50
2023-02-04T20:59:18.652Z,-3274.40
2023-02-04T21:01:50.664Z,-3274.40
2023-02-04T21:04:47.902Z,-3274.40
2023-02-04T21:07:21.975Z,-3274.30
2023-02-04T21:09:49.868Z,-3274.20
2023-02-04T21:12:17.361Z,-3274.20
2023-02-04T21:14:44.250Z,-3274.20
2023-02-04T21:17:11.181Z,-3274.20
2023-02-04T21:19:37.934Z,-3274.20
2023-02-04T21:22:05.195Z,-3274.20
2023-02-04T21:24:32.002Z,-3274.20
2023-02-04T21:26:58.932Z,-3274.20
2023-02-04T21:29:26.866Z,-3274.20
2023-02-04T21:31:54.844Z,-3274.20
2023-02-04T21:34:22.158Z,-3274.00
2023-02-04T21:36:49.511Z,-3273.80
2023-02-04T21:39:16.736Z,-3273.80
2023-02-04T21:41:44.411Z,-3273.80
2023-02-04T21:44:11.197Z,-3273.70
2023-02-04T21:46:37.985Z,-3273.70
2023-02-04T21:49:05.362Z,-3273.80
2023-02-04T21:51:32.230Z,-3273.80
2023-02-04T21:53:59.949Z,-3273.80
2023-02-04T21:56:26.720Z,-3273.80
2023-02-04T21:58:56.294Z,-3273.70
2023-02-04T22:01:23.111Z,-3273.70
2023-02-04T22:03:49.876Z,-3273.70
2023-02-04T22:06:16.938Z,-3273.70
2023-02-04T22:08:46.127Z,-3273.70
2023-02-04T22:11:14.415Z,-3273.70
2023-02-04T22:14:01.197Z,-3273.70
2023-02-04T22:16:27.968Z,-3273.70
2023-02-04T22:18:55.321Z,-3273.60
2023-02-04T22:21:22.033Z,-3273.60
2023-02-04T22:23:48.741Z,-3273.60
2023-02-04T22:26:15.498Z,-3273.50
2023-02-04T22:28:42.257Z,-3273.60
2023-02-04T22:31:09.117Z,-3273.70
2023-02-04T22:33:35.943Z,-3273.70
2023-02-04T22:36:02.694Z,-3273.50
2023-02-04T22:38:29.656Z,-3273.40
2023-02-04T22:40:56.390Z,-3273.40
2023-02-04T22:43:23.124Z,-3273.30
2023-02-04T22:45:50.215Z,-3273.40
2023-02-04T22:48:17.058Z,-3273.40
2023-02-04T22:50:44.100Z,-3273.30
2023-02-04T22:53:11.110Z,-3273.30
2023-02-04T22:55:37.908Z,-3273.30
2023-02-04T22:58:05.314Z,-3273.30
2023-02-04T23:00:32.330Z,-3273.30
2023-02-04T23:02:59.607Z,-3273.40
2023-02-04T23:05:26.545Z,-3273.40
2023-02-04T23:07:53.377Z,-3273.40
2023-02-04T23:10:20.138Z,-3273.40
2023-02-04T23:12:46.868Z,-3273.40
2023-02-04T23:15:13.784Z,-3273.30
2023-02-04T23:17:40.495Z,-3273.20
2023-02-04T23:20:07.718Z,-3273.30
2023-02-04T23:22:34.444Z,-3273.20
2023-02-04T23:25:01.298Z,-3273.20
2023-02-04T23:27:28.084Z,-3273.20
2023-02-04T23:29:54.781Z,-3273.20
2023-02-04T23:32:23.308Z,-3273.10
2023-02-04T23:34:50.038Z,-3273.20
2023-02-04T23:37:16.708Z,-3273.20
2023-02-04T23:39:43.436Z,-3273.20
2023-02-04T23:42:10.129Z,-3273.20
2023-02-04T23:44:36.843Z,-3273.20
2023-02-04T23:47:03.590Z,-3273.10
2023-02-04T23:49:30.321Z,-3273.10
2023-02-04T23:51:57.028Z,-3273.00
2023-02-04T23:54:23.844Z,-3273.00
2023-02-04T23:56:51.946Z,-3272.90
2023-02-04T23:59:18.898Z,-3272.90
